Castlewood, Virginia
Current Conditions -  °F | °C
As of 9:15 PM on Saturday 22 Nov 2014 (Local Time) from KLNP Reporting Station
Clear Clear  
Wind Chill: 43°   Ceiling: Unl
Heat Index: 46°   Visibility: 10mi
Dew Point: 19°   Wind: 7mph
Humidity: 34%   Direction: 160°SSE
Pressure: 30.2"   Gusts: NA
Location:  36.88°N, 82.29°W
Report Text: KLNP 230215Z AUTO 16006KT 10SM CLR 08/M07 A3020 RMK AO2
Loading
Personal Weather Stations






























Interactive Weather Map New forecast layout! Learn more

10-Day Weather Forecast

Advertisements
Track Severe Weather on mobile